Pagina principale
METAR-TAF:

METAR-TAF

Aeroporti :

Le Luc, Francia

latitudine: 43-23N, longitudine: 006-23E, altezza: 80 m

Osservazione

Il bollettino è stato emesso 16 minuti fa, alle 16:00 UTC
Vento 8 kt da ovest/sud-ovest, variando fra sud/sud-ovest e ovest
Temperature 25°C
Umidità 39%
Pressione 1013 hPa
Visibilità 10 km o più

METAR: LFMC 311600Z AUTO 25008KT 200V280 9999 ////// 25/10 Q1013

Ora: 18:16 (16:16 UTC)


TAF: mancante

Osservazioni e previsioni meteorologiche di più di 4000 aeroporti (messaggi METAR e TAF).

Le stazioni disponibili sono rappresentate dai dischi gialli e rossi sulla carta.

Puntare il mouse per vedere il nome della stazione.

Clicca sopra per visualizzare le osservazioni e previsioni meteorologiche.

Per cambiare la mappa : fare clic sui pulsanti verdi con una croce nera per ingrandire, il pulsante verde con un trattino per diminuire, o sulla freccia verde per le mappe adiacenti.


METAR-TAF: